Maersk Drummond — A8JF3 — position and weather

sailwx.info

Track history (hours):
 
Tides and Currents Weather Stations Pressure Air Temp Water Temp Dewpoint Dewpoint Depression Visibility Wind Speed Wind Dir Waves Ship Positions

Maersk Drummond

Last reported at 2015-May-29 03:30 UTC. Time now 2015-May-29 04:20 UTC.
Position N 52°13' E 003°03'.

Length 294 m; draft 11.1 m.

Type: Ship (hazmat cat A). MMSI: 636091082.

Date/timePositionNaut miles runAvg speedWind from/ knotsBaromVisibWave heightAir tempDewpointWater temp
2015-May-29 03:30N 52°13' E 003°03'1717.3
2015-May-29 02:32N 52°27' E 003°18'1616.3
2015-May-29 01:33N 52°40' E 003°34'1716.5
2015-May-29 00:33N 52°53' E 003°51'1616.2
2015-May-28 23:33N 53°04' E 004°11'1616.1
2015-May-28 22:33N 53°16' E 004°28'1616.2
2015-May-28 21:33N 53°29' E 004°43'1817.7
2015-May-28 20:33N 53°36' E 005°11'1717.3
2015-May-28 19:33N 53°41' E 005°39'1716.9
2015-May-28 18:33N 53°47' E 006°05'3615.9
2015-May-28 16:18N 53°56' E 007°04'1215.5
2015-May-28 15:33N 53°59' E 007°23'1413.8
2015-May-28 14:33N 53°54' E 007°45'1413.8
2015-May-28 13:33N 53°49' E 008°07'1717.2
2015-May-28 12:33N 53°37' E 008°29'3 2.6
2015-May-28 11:33N 53°35' E 008°32'0 0.0
2015-May-28 10:33N 53°35' E 008°32'0 0.0
2015-May-28 09:33N 53°35' E 008°32'0 0.0
2015-May-28 08:33N 53°35' E 008°32'0 0.0
2015-May-28 07:33N 53°35' E 008°32'0 0.0
2015-May-28 06:33N 53°35' E 008°32'0 0.0
2015-May-28 05:33N 53°35' E 008°32'0 0.0
2015-May-28 04:33N 53°35' E 008°32'0 0.0
2015-May-28 03:33N 53°35' E 008°32'0 0.0
2015-May-28 02:33N 53°35' E 008°32'0 0.0
2015-May-28 01:33N 53°35' E 008°32'0 0.0
2015-May-28 00:33N 53°35' E 008°32'0 0.0
2015-May-27 23:33N 53°35' E 008°32'0 0.0
2015-May-27 22:33N 53°35' E 008°32'0 0.0
2015-May-27 21:33N 53°35' E 008°32'0 0.0
2015-May-27 20:33N 53°35' E 008°32'0 0.0
2015-May-27 19:33N 53°35' E 008°32'0 0.0
2015-May-27 18:33N 53°35' E 008°32'0 0.0
2015-May-27 17:33N 53°35' E 008°32'0 0.0
2015-May-27 16:33N 53°35' E 008°32'0 0.0
2015-May-27 15:32N 53°35' E 008°32'0 0.0
2015-May-27 14:33N 53°35' E 008°32'0 0.0
2015-May-27 13:32N 53°35' E 008°32'0 0.0
2015-May-27 12:33N 53°35' E 008°32'4 4.6
2015-May-27 11:33N 53°38' E 008°26'1515.0
2015-May-27 10:33N 53°48' E 008°08'1313.3
2015-May-27 09:34N 53°53' E 007°46'8 8.2
2015-May-27 08:34N 53°55' E 007°33'1010.0
2015-May-27 07:34N 53°53' E 007°16'1110.5
2015-May-27 06:30N 53°50' E 006°58'10 9.5
2015-May-27 05:29N 53°48' E 006°42'1613.3
2015-May-27 04:19N 53°44' E 006°16'1114.8
2015-May-27 03:34N 53°41' E 005°58'1515.0
2015-May-27 02:34N 53°36' E 005°34'1515.2
2015-May-27 01:34N 53°32' E 005°10'1515.4
2015-May-27 00:34N 53°26' E 004°46'4715.4
2015-May-26 21:32N 52°46' E 004°07'1715.3
2015-May-26 20:25N 52°33' E 003°48'4114.4
2015-May-26 17:32N 52°01' E 003°05'1513.8
2015-May-26 16:29N 51°47' E 003°09'1010.5
2015-May-26 15:33N 51°37' E 003°10'1413.8
2015-May-26 14:33N 51°25' E 003°01'1817.6
2015-May-26 13:33N 51°25' E 003°30'8 8.4
2015-May-26 12:33N 51°23' E 003°43'1212.1
2015-May-26 11:34N 51°25' E 004°02'1010.3
2015-May-26 10:33N 51°20' E 004°16'0 0.1
2015-May-26 09:32N 51°20' E 004°17'0 0.0
2015-May-26 08:32N 51°20' E 004°17'0 0.0
2015-May-26 07:32N 51°20' E 004°17'0 0.0
2015-May-26 06:32N 51°20' E 004°17'0 0.0
2015-May-26 05:29N 51°20' E 004°17'0 0.0
2015-May-26 04:32N 51°20' E 004°17'0 0.0
2015-May-26 03:29N 51°20' E 004°17'0 0.0
2015-May-26 02:32N 51°20' E 004°17'0 0.0
2015-May-26 01:32N 51°20' E 004°17'0 0.0
2015-May-26 00:32N 51°20' E 004°17'0 0.0
2015-May-25 23:32N 51°20' E 004°17'0 0.0
2015-May-25 22:32N 51°20' E 004°17'0 0.0
2015-May-25 21:32N 51°20' E 004°17'0 0.0
2015-May-25 20:32N 51°20' E 004°17'0 0.0
2015-May-25 19:32N 51°20' E 004°17'0 0.0
2015-May-25 18:32N 51°20' E 004°17'0 0.0
2015-May-25 17:29N 51°20' E 004°17'0 0.0
2015-May-25 16:32N 51°20' E 004°17'0 0.0
2015-May-25 15:32N 51°20' E 004°17'0 0.0
2015-May-25 14:32N 51°20' E 004°17'0 0.0
2015-May-25 13:32N 51°20' E 004°17'0 0.0
2015-May-25 12:32N 51°20' E 004°17'0 0.1
2015-May-25 11:33N 51°20' E 004°16'8 7.6
2015-May-25 10:33N 51°22' E 004°05'7 7.3
2015-May-25 09:33N 51°21' E 003°53'1111.3
2015-May-25 08:33N 51°26' E 003°37'1414.1
2015-May-25 07:34N 51°24' E 003°14'1616.2
2015-May-25 06:34N 51°25' E 002°48'5 4.6
2015-May-25 05:34N 51°25' E 002°41'0 0.5
2015-May-25 04:32N 51°25' E 002°40'0 0.1
2015-May-25 03:32N 51°25' E 002°40'0 0.1
2015-May-25 02:32N 51°25' E 002°40'0 0.0
2015-May-25 01:32N 51°25' E 002°40'0 0.0
2015-May-25 00:32N 51°25' E 002°40'0 0.2
2015-May-24 23:32N 51°25' E 002°40'0 0.1
2015-May-24 22:32N 51°25' E 002°40'0 0.0
2015-May-24 21:32N 51°25' E 002°40'0 0.0
2015-May-24 20:32N 51°25' E 002°40'0 0.0
2015-May-24 19:32N 51°25' E 002°40'0 0.0
2015-May-24 18:32N 51°25' E 002°40'0 0.0
2015-May-24 17:32N 51°25' E 002°40'0 0.0
2015-May-24 16:32N 51°25' E 002°40'0 0.0
2015-May-24 15:32N 51°25' E 002°40'0 0.2
2015-May-24 14:32N 51°25' E 002°40'0 0.1
2015-May-24 13:29N 51°25' E 002°40'0 0.0
2015-May-24 12:32N 51°25' E 002°40'0 0.0
2015-May-24 11:32N 51°25' E 002°40'0 0.0
2015-May-24 10:32N 51°25' E 002°40'1 1.3
2015-May-24 09:33N 51°25' E 002°38'9 9.2
2015-May-24 08:33N 51°20' E 002°25'1211.7
2015-May-24 07:33N 51°15' E 002°08'1212.3
2015-May-24 06:33N 51°09' E 001°51'1313.1
2015-May-24 05:33N 51°00' E 001°36'1413.9
2015-May-24 04:34N 50°48' E 001°24'1312.8
2015-May-24 03:34N 50°38' E 001°12'1212.3
2015-May-24 02:33N 50°30' E 000°57'1212.5
2015-May-24 01:33N 50°27' E 000°38'1312.9
2015-May-24 00:34N 50°24' E 000°19'1312.9
2015-May-23 23:34N 50°21' W 000°01'1212.2
2015-May-23 22:33N 50°26' W 000°19'1211.8
2015-May-23 21:34N 50°30' W 000°36'1211.7
2015-May-23 20:33N 50°35' W 000°53'9 9.3
2015-May-23 19:33N 50°43' W 001°00'1212.5
2015-May-23 18:33N 50°48' W 001°18'8 8.1
2015-May-23 17:33N 50°54' W 001°26'1 1.3
2015-May-23 16:33N 50°55' W 001°28'0 0.0
2015-May-23 15:33N 50°55' W 001°28'0 0.0
2015-May-23 14:33N 50°55' W 001°28'0 0.0
2015-May-23 13:33N 50°55' W 001°28'0 0.0
2015-May-23 12:33N 50°55' W 001°28'0 0.0
2015-May-23 11:33N 50°55' W 001°28'0 0.0
2015-May-23 10:33N 50°55' W 001°28'0 0.0
2015-May-23 09:33N 50°55' W 001°28'0 0.0
2015-May-23 08:33N 50°55' W 001°28'0 0.0
2015-May-23 07:33N 50°55' W 001°28'0 0.0
2015-May-23 06:33N 50°55' W 001°28'0 0.0
2015-May-23 05:33N 50°55' W 001°28'0 0.0
2015-May-23 04:33N 50°55' W 001°28'5 4.7
2015-May-23 03:33N 50°52' W 001°22'9 8.8
2015-May-23 02:33N 50°46' W 001°12'1211.9
2015-May-23 01:33N 50°38' W 000°58'6 5.8
2015-May-23 00:34N 50°32' W 000°58'1514.8
2015-May-22 23:33N 50°18' W 001°03'  
Track history (hours):
 
Tides and Currents Weather Stations Pressure Air Temp Water Temp Dewpoint Dewpoint Depression Visibility Wind Speed Wind Dir Waves Ship Positions

Maersk Drummond

Last reported at 2015-May-29 03:30 UTC. Time now 2015-May-29 04:20 UTC.
Position N 52°13' E 003°03'.

Length 294 m; draft 11.1 m.

Type: Ship (hazmat cat A). MMSI: 636091082.

Date/timePositionNaut miles runAvg speedWind from/ knotsBaromVisibWave heightAir tempDewpointWater temp
2015-May-29 03:30N 52°13' E 003°03'1717.3
2015-May-29 02:32N 52°27' E 003°18'1616.3
2015-May-29 01:33N 52°40' E 003°34'1716.5
2015-May-29 00:33N 52°53' E 003°51'1616.2
2015-May-28 23:33N 53°04' E 004°11'1616.1
2015-May-28 22:33N 53°16' E 004°28'1616.2
2015-May-28 21:33N 53°29' E 004°43'1817.7
2015-May-28 20:33N 53°36' E 005°11'1717.3
2015-May-28 19:33N 53°41' E 005°39'1716.9
2015-May-28 18:33N 53°47' E 006°05'3615.9
2015-May-28 16:18N 53°56' E 007°04'1215.5
2015-May-28 15:33N 53°59' E 007°23'1413.8
2015-May-28 14:33N 53°54' E 007°45'1413.8
2015-May-28 13:33N 53°49' E 008°07'1717.2
2015-May-28 12:33N 53°37' E 008°29'3 2.6
2015-May-28 11:33N 53°35' E 008°32'0 0.0
2015-May-28 10:33N 53°35' E 008°32'0 0.0
2015-May-28 09:33N 53°35' E 008°32'0 0.0
2015-May-28 08:33N 53°35' E 008°32'0 0.0
2015-May-28 07:33N 53°35' E 008°32'0 0.0
2015-May-28 06:33N 53°35' E 008°32'0 0.0
2015-May-28 05:33N 53°35' E 008°32'0 0.0
2015-May-28 04:33N 53°35' E 008°32'0 0.0
2015-May-28 03:33N 53°35' E 008°32'0 0.0
2015-May-28 02:33N 53°35' E 008°32'0 0.0
2015-May-28 01:33N 53°35' E 008°32'0 0.0
2015-May-28 00:33N 53°35' E 008°32'0 0.0
2015-May-27 23:33N 53°35' E 008°32'0 0.0
2015-May-27 22:33N 53°35' E 008°32'0 0.0
2015-May-27 21:33N 53°35' E 008°32'0 0.0
2015-May-27 20:33N 53°35' E 008°32'0 0.0
2015-May-27 19:33N 53°35' E 008°32'0 0.0
2015-May-27 18:33N 53°35' E 008°32'0 0.0
2015-May-27 17:33N 53°35' E 008°32'0 0.0
2015-May-27 16:33N 53°35' E 008°32'0 0.0
2015-May-27 15:32N 53°35' E 008°32'0 0.0
2015-May-27 14:33N 53°35' E 008°32'0 0.0
2015-May-27 13:32N 53°35' E 008°32'0 0.0
2015-May-27 12:33N 53°35' E 008°32'4 4.6
2015-May-27 11:33N 53°38' E 008°26'1515.0
2015-May-27 10:33N 53°48' E 008°08'1313.3
2015-May-27 09:34N 53°53' E 007°46'8 8.2
2015-May-27 08:34N 53°55' E 007°33'1010.0
2015-May-27 07:34N 53°53' E 007°16'1110.5
2015-May-27 06:30N 53°50' E 006°58'10 9.5
2015-May-27 05:29N 53°48' E 006°42'1613.3
2015-May-27 04:19N 53°44' E 006°16'1114.8
2015-May-27 03:34N 53°41' E 005°58'1515.0
2015-May-27 02:34N 53°36' E 005°34'1515.2
2015-May-27 01:34N 53°32' E 005°10'1515.4
2015-May-27 00:34N 53°26' E 004°46'4715.4
2015-May-26 21:32N 52°46' E 004°07'1715.3
2015-May-26 20:25N 52°33' E 003°48'4114.4
2015-May-26 17:32N 52°01' E 003°05'1513.8
2015-May-26 16:29N 51°47' E 003°09'1010.5
2015-May-26 15:33N 51°37' E 003°10'1413.8
2015-May-26 14:33N 51°25' E 003°01'1817.6
2015-May-26 13:33N 51°25' E 003°30'8 8.4
2015-May-26 12:33N 51°23' E 003°43'1212.1
2015-May-26 11:34N 51°25' E 004°02'1010.3
2015-May-26 10:33N 51°20' E 004°16'0 0.1
2015-May-26 09:32N 51°20' E 004°17'0 0.0
2015-May-26 08:32N 51°20' E 004°17'0 0.0
2015-May-26 07:32N 51°20' E 004°17'0 0.0
2015-May-26 06:32N 51°20' E 004°17'0 0.0
2015-May-26 05:29N 51°20' E 004°17'0 0.0
2015-May-26 04:32N 51°20' E 004°17'0 0.0
2015-May-26 03:29N 51°20' E 004°17'0 0.0
2015-May-26 02:32N 51°20' E 004°17'0 0.0
2015-May-26 01:32N 51°20' E 004°17'0 0.0
2015-May-26 00:32N 51°20' E 004°17'0 0.0
2015-May-25 23:32N 51°20' E 004°17'0 0.0
2015-May-25 22:32N 51°20' E 004°17'0 0.0
2015-May-25 21:32N 51°20' E 004°17'0 0.0
2015-May-25 20:32N 51°20' E 004°17'0 0.0
2015-May-25 19:32N 51°20' E 004°17'0 0.0
2015-May-25 18:32N 51°20' E 004°17'0 0.0
2015-May-25 17:29N 51°20' E 004°17'0 0.0
2015-May-25 16:32N 51°20' E 004°17'0 0.0
2015-May-25 15:32N 51°20' E 004°17'0 0.0
2015-May-25 14:32N 51°20' E 004°17'0 0.0
2015-May-25 13:32N 51°20' E 004°17'0 0.0
2015-May-25 12:32N 51°20' E 004°17'0 0.1
2015-May-25 11:33N 51°20' E 004°16'8 7.6
2015-May-25 10:33N 51°22' E 004°05'7 7.3
2015-May-25 09:33N 51°21' E 003°53'1111.3
2015-May-25 08:33N 51°26' E 003°37'1414.1
2015-May-25 07:34N 51°24' E 003°14'1616.2
2015-May-25 06:34N 51°25' E 002°48'5 4.6
2015-May-25 05:34N 51°25' E 002°41'0 0.5
2015-May-25 04:32N 51°25' E 002°40'0 0.1
2015-May-25 03:32N 51°25' E 002°40'0 0.1
2015-May-25 02:32N 51°25' E 002°40'0 0.0
2015-May-25 01:32N 51°25' E 002°40'0 0.0
2015-May-25 00:32N 51°25' E 002°40'0 0.2
2015-May-24 23:32N 51°25' E 002°40'0 0.1
2015-May-24 22:32N 51°25' E 002°40'0 0.0
2015-May-24 21:32N 51°25' E 002°40'0 0.0
2015-May-24 20:32N 51°25' E 002°40'0 0.0
2015-May-24 19:32N 51°25' E 002°40'0 0.0
2015-May-24 18:32N 51°25' E 002°40'0 0.0
2015-May-24 17:32N 51°25' E 002°40'0 0.0
2015-May-24 16:32N 51°25' E 002°40'0 0.0
2015-May-24 15:32N 51°25' E 002°40'0 0.2
2015-May-24 14:32N 51°25' E 002°40'0 0.1
2015-May-24 13:29N 51°25' E 002°40'0 0.0
2015-May-24 12:32N 51°25' E 002°40'0 0.0
2015-May-24 11:32N 51°25' E 002°40'0 0.0
2015-May-24 10:32N 51°25' E 002°40'1 1.3
2015-May-24 09:33N 51°25' E 002°38'9 9.2
2015-May-24 08:33N 51°20' E 002°25'1211.7
2015-May-24 07:33N 51°15' E 002°08'1212.3
2015-May-24 06:33N 51°09' E 001°51'1313.1
2015-May-24 05:33N 51°00' E 001°36'1413.9
2015-May-24 04:34N 50°48' E 001°24'1312.8
2015-May-24 03:34N 50°38' E 001°12'1212.3
2015-May-24 02:33N 50°30' E 000°57'1212.5
2015-May-24 01:33N 50°27' E 000°38'1312.9
2015-May-24 00:34N 50°24' E 000°19'1312.9
2015-May-23 23:34N 50°21' W 000°01'1212.2
2015-May-23 22:33N 50°26' W 000°19'1211.8
2015-May-23 21:34N 50°30' W 000°36'1211.7
2015-May-23 20:33N 50°35' W 000°53'9 9.3
2015-May-23 19:33N 50°43' W 001°00'1212.5
2015-May-23 18:33N 50°48' W 001°18'8 8.1
2015-May-23 17:33N 50°54' W 001°26'1 1.3
2015-May-23 16:33N 50°55' W 001°28'0 0.0
2015-May-23 15:33N 50°55' W 001°28'0 0.0
2015-May-23 14:33N 50°55' W 001°28'0 0.0
2015-May-23 13:33N 50°55' W 001°28'0 0.0
2015-May-23 12:33N 50°55' W 001°28'0 0.0
2015-May-23 11:33N 50°55' W 001°28'0 0.0
2015-May-23 10:33N 50°55' W 001°28'0 0.0
2015-May-23 09:33N 50°55' W 001°28'0 0.0
2015-May-23 08:33N 50°55' W 001°28'0 0.0
2015-May-23 07:33N 50°55' W 001°28'0 0.0
2015-May-23 06:33N 50°55' W 001°28'0 0.0
2015-May-23 05:33N 50°55' W 001°28'0 0.0
2015-May-23 04:33N 50°55' W 001°28'5 4.7
2015-May-23 03:33N 50°52' W 001°22'9 8.8
2015-May-23 02:33N 50°46' W 001°12'1211.9
2015-May-23 01:33N 50°38' W 000°58'6 5.8
2015-May-23 00:34N 50°32' W 000°58'1514.8
2015-May-22 23:33N 50°18' W 001°03'  

Dump ship's entire track history